createdAt,value
2019-05-15T00:00:58.719Z,5.70
2019-05-15T00:03:46.313Z,5.70
2019-05-15T00:06:34.369Z,5.60
2019-05-15T00:09:22.879Z,5.60
2019-05-15T00:12:10.748Z,5.60
2019-05-15T00:14:59.220Z,5.60
2019-05-15T00:17:48.547Z,5.50
2019-05-15T00:20:39.433Z,5.50
2019-05-15T00:23:28.961Z,5.40
2019-05-15T00:26:18.176Z,5.30
2019-05-15T00:29:12.839Z,5.40
2019-05-15T00:31:58.774Z,5.30
2019-05-15T00:34:48.674Z,5.30
2019-05-15T00:37:38.448Z,5.30
2019-05-15T00:40:25.779Z,5.30
2019-05-15T00:43:13.641Z,5.20
2019-05-15T00:46:01.940Z,5.10
2019-05-15T00:48:49.530Z,5.20
2019-05-15T00:51:38.971Z,5.10
2019-05-15T00:54:28.210Z,5.10
2019-05-15T00:57:16.525Z,5.00
2019-05-15T01:00:08.216Z,5.00
2019-05-15T01:02:57.766Z,5.00
2019-05-15T01:14:11.887Z,4.90
2019-05-15T01:16:58.241Z,4.90
2019-05-15T01:19:48.215Z,4.90
2019-05-15T01:22:35.938Z,5.00
2019-05-15T01:25:23.588Z,5.00
2019-05-15T01:28:11.964Z,4.90
2019-05-15T01:33:48.265Z,4.90
2019-05-15T01:36:38.287Z,4.80
2019-05-15T01:39:25.941Z,4.80
2019-05-15T01:45:01.856Z,4.60
2019-05-15T01:47:50.447Z,4.70
2019-05-15T01:56:18.790Z,4.60
2019-05-15T02:13:08.866Z,4.60
2019-05-15T02:15:58.901Z,4.60
2019-05-15T02:27:12.613Z,4.60
2019-05-15T02:30:15.984Z,4.60
2019-05-15T02:32:51.082Z,4.60
2019-05-15T02:35:39.537Z,4.60
2019-05-15T02:41:19.572Z,4.60
2019-05-15T02:44:10.652Z,4.60
2019-05-15T02:58:10.597Z,4.30
2019-05-15T03:03:49.672Z,4.10
2019-05-15T03:12:19.545Z,3.90
2019-05-15T03:17:55.818Z,3.80
2019-05-15T03:20:44.507Z,3.80
2019-05-15T03:26:20.115Z,3.70
2019-05-15T03:32:13.404Z,3.60
2019-05-15T03:34:53.742Z,3.60
2019-05-15T03:37:39.499Z,3.50
2019-05-15T03:40:29.562Z,3.50
2019-05-15T03:46:04.958Z,3.40
2019-05-15T03:48:52.677Z,3.40
2019-05-15T03:51:45.431Z,3.40
2019-05-15T03:54:31.401Z,3.40
2019-05-15T03:57:23.020Z,3.30
2019-05-15T04:00:09.707Z,3.40
2019-05-15T04:05:49.465Z,3.40
2019-05-15T04:08:39.171Z,3.40
2019-05-15T04:11:29.375Z,3.50
2019-05-15T04:17:08.846Z,3.50
2019-05-15T04:19:58.761Z,3.50
2019-05-15T04:22:49.011Z,3.50
2019-05-15T04:34:02.529Z,3.80
2019-05-15T04:36:50.608Z,3.90
2019-05-15T04:42:29.859Z,4.00
2019-05-15T04:45:19.404Z,4.10
2019-05-15T04:48:10.146Z,4.10
2019-05-15T04:50:58.946Z,4.20
2019-05-15T04:56:39.674Z,4.50
2019-05-15T05:05:03.297Z,5.10
2019-05-15T05:16:19.085Z,6.20
2019-05-15T05:19:08.920Z,6.40
2019-05-15T05:24:47.803Z,6.80
2019-05-15T05:30:23.645Z,7.00
2019-05-15T05:35:59.616Z,7.30
2019-05-15T05:38:49.350Z,7.40
2019-05-15T05:44:29.127Z,7.70
2019-05-15T05:55:42.996Z,7.80
2019-05-15T05:58:31.310Z,7.80
2019-05-15T06:04:07.892Z,7.90
2019-05-15T06:09:45.374Z,8.60
2019-05-15T06:12:33.653Z,8.90
2019-05-15T06:18:09.583Z,10.30
2019-05-15T06:20:58.701Z,11.70
2019-05-15T06:23:54.867Z,13.70
2019-05-15T06:35:03.989Z,21.50
2019-05-15T06:37:52.632Z,22.10
2019-05-15T06:43:29.256Z,22.90
2019-05-15T06:49:08.448Z,23.70
2019-05-15T06:54:48.362Z,23.60
2019-05-15T07:00:23.489Z,23.80
2019-05-15T07:03:21.436Z,24.30
2019-05-15T07:06:01.213Z,24.50
2019-05-15T07:08:49.939Z,24.70
2019-05-15T07:11:38.919Z,24.70
2019-05-15T07:14:28.801Z,24.70
2019-05-15T07:17:17.771Z,24.00
2019-05-15T07:22:55.642Z,24.10
2019-05-15T07:28:31.633Z,24.10
2019-05-15T07:31:20.219Z,23.90
2019-05-15T07:34:08.573Z,24.20
2019-05-15T07:36:59.204Z,24.20
2019-05-15T07:39:48.756Z,24.60
2019-05-15T07:42:38.677Z,25.50
2019-05-15T07:48:18.463Z,24.50
2019-05-15T07:51:11.040Z,24.90
2019-05-15T07:59:32.544Z,24.40
2019-05-15T08:02:20.930Z,24.10
2019-05-15T08:10:49.035Z,25.00
2019-05-15T08:13:38.306Z,24.40
2019-05-15T08:16:28.763Z,22.30
2019-05-15T08:19:18.401Z,24.10
2019-05-15T08:24:58.963Z,25.10
2019-05-15T08:27:48.472Z,26.00
2019-05-15T08:36:11.557Z,24.00
2019-05-15T08:38:59.868Z,23.20
2019-05-15T08:41:48.427Z,22.70
2019-05-15T08:44:38.637Z,24.20
2019-05-15T08:53:08.227Z,20.60
2019-05-15T08:55:58.584Z,20.40
2019-05-15T08:58:48.470Z,19.20
2019-05-15T09:01:38.267Z,18.50
2019-05-15T09:04:33.849Z,17.40
2019-05-15T09:10:09.044Z,16.20
2019-05-15T09:15:48.189Z,15.70
2019-05-15T09:21:23.769Z,16.40
2019-05-15T09:24:12.409Z,16.20
2019-05-15T09:27:00.359Z,15.80
2019-05-15T09:29:48.535Z,16.10
2019-05-15T09:32:39.284Z,16.10
2019-05-15T09:35:27.799Z,16.10
2019-05-15T09:38:18.186Z,16.10
2019-05-15T09:41:08.690Z,16.30
2019-05-15T09:43:57.921Z,16.40
2019-05-15T09:52:23.142Z,16.10
2019-05-15T09:55:11.081Z,16.00
2019-05-15T10:00:51.874Z,15.50
2019-05-15T10:06:43.976Z,15.60
2019-05-15T10:09:22.844Z,15.80
2019-05-15T10:34:38.571Z,15.90
2019-05-15T10:40:16.012Z,15.30
2019-05-15T10:48:41.390Z,16.00
2019-05-15T10:51:29.705Z,16.30
2019-05-15T10:57:08.661Z,16.50
2019-05-15T11:02:45.917Z,16.00
2019-05-15T11:05:44.640Z,15.90
2019-05-15T11:08:23.679Z,15.80
2019-05-15T11:11:11.461Z,16.20
2019-05-15T11:14:00.551Z,16.20
2019-05-15T11:16:48.857Z,16.10
2019-05-15T11:19:40.640Z,16.00
2019-05-15T11:22:29.660Z,16.30
2019-05-15T11:25:17.484Z,16.30
2019-05-15T11:28:05.373Z,15.90
2019-05-15T11:30:53.903Z,15.90
2019-05-15T11:33:42.451Z,16.00
2019-05-15T11:36:32.916Z,15.90
2019-05-15T11:39:21.206Z,15.80
2019-05-15T11:42:09.615Z,15.70
2019-05-15T11:44:58.487Z,15.70
2019-05-15T11:47:48.269Z,15.90
2019-05-15T11:56:12.368Z,16.10
2019-05-15T11:59:01.060Z,16.10
2019-05-15T12:01:49.009Z,16.00
2019-05-15T12:04:38.390Z,16.10
2019-05-15T12:10:18.406Z,16.30
2019-05-15T12:13:09.502Z,16.40
2019-05-15T12:15:58.755Z,16.40
2019-05-15T12:18:48.347Z,16.00
2019-05-15T12:21:39.406Z,16.30
2019-05-15T12:24:32.813Z,16.50
2019-05-15T12:27:18.377Z,16.70
2019-05-15T12:30:10.110Z,16.50
2019-05-15T12:33:00.253Z,16.40
2019-05-15T12:35:50.753Z,16.50
2019-05-15T12:38:39.830Z,15.20
2019-05-15T13:01:18.253Z,16.80
2019-05-15T13:04:08.243Z,16.90
2019-05-15T13:07:12.382Z,17.20
2019-05-15T13:09:48.699Z,17.20
2019-05-15T13:12:47.585Z,17.20
2019-05-15T13:15:28.184Z,17.00
2019-05-15T13:18:18.003Z,17.10
2019-05-15T13:21:06.149Z,17.10
2019-05-15T13:23:54.881Z,17.20
2019-05-15T13:26:43.742Z,17.20
2019-05-15T13:35:09.994Z,17.20
2019-05-15T13:37:58.627Z,17.10
2019-05-15T13:40:48.159Z,17.10
2019-05-15T13:43:38.507Z,17.10
2019-05-15T13:46:28.790Z,17.20
2019-05-15T13:49:18.578Z,17.20
2019-05-15T13:52:08.539Z,17.10
2019-05-15T13:54:56.342Z,17.10
2019-05-15T13:57:44.784Z,17.00
2019-05-15T14:00:33.036Z,17.00
2019-05-15T14:03:21.612Z,17.00
2019-05-15T14:06:10.278Z,16.90
2019-05-15T14:08:58.417Z,17.10
2019-05-15T14:12:11.016Z,16.90
2019-05-15T14:17:43.446Z,17.00
2019-05-15T14:20:31.857Z,17.00
2019-05-15T14:23:20.041Z,17.10
2019-05-15T14:26:17.724Z,17.10
2019-05-15T14:28:58.667Z,17.00
2019-05-15T14:31:48.357Z,17.00
2019-05-15T14:34:38.065Z,17.10
2019-05-15T14:37:28.564Z,17.10
2019-05-15T14:40:17.823Z,17.10
2019-05-15T14:45:54.997Z,17.20
2019-05-15T14:48:43.144Z,17.00
2019-05-15T14:51:30.905Z,17.10
2019-05-15T14:57:09.481Z,17.20
2019-05-15T14:59:58.029Z,17.10
2019-05-15T15:02:49.123Z,16.90
2019-05-15T15:05:38.314Z,16.80
2019-05-15T15:08:28.689Z,16.90
2019-05-15T15:11:17.815Z,17.10
2019-05-15T15:14:05.406Z,17.10
2019-05-15T15:16:53.948Z,17.10
2019-05-15T15:19:42.275Z,17.10
2019-05-15T15:22:30.340Z,17.00
2019-05-15T15:25:19.365Z,17.00
2019-05-15T15:28:08.271Z,17.00
2019-05-15T15:30:58.046Z,17.00
2019-05-15T15:33:48.557Z,16.90
2019-05-15T15:36:37.955Z,16.90
2019-05-15T15:39:28.077Z,16.70
2019-05-15T15:42:16.737Z,16.80
2019-05-15T15:50:40.548Z,16.80
2019-05-15T15:53:29.327Z,16.80
2019-05-15T16:01:56.444Z,16.80
2019-05-15T16:04:44.621Z,16.60
2019-05-15T16:07:32.990Z,16.70
2019-05-15T16:10:21.429Z,16.60
2019-05-15T16:15:58.149Z,16.90
2019-05-15T16:18:48.936Z,17.00
2019-05-15T16:24:24.933Z,17.10
2019-05-15T16:27:12.547Z,17.10
2019-05-15T16:30:01.116Z,17.00
2019-05-15T16:32:49.374Z,17.00
2019-05-15T16:35:38.038Z,17.00
2019-05-15T16:38:28.432Z,16.90
2019-05-15T16:41:18.211Z,16.70
2019-05-15T16:44:05.296Z,16.70
2019-05-15T16:46:53.193Z,16.30
2019-05-15T16:49:40.656Z,16.30
2019-05-15T16:52:31.004Z,16.10
2019-05-15T16:55:18.376Z,16.10
2019-05-15T16:58:09.127Z,16.40
2019-05-15T17:00:58.395Z,16.80
2019-05-15T17:03:45.877Z,17.00
2019-05-15T17:06:34.538Z,17.10
2019-05-15T17:09:23.052Z,17.20
2019-05-15T17:12:11.382Z,17.20
2019-05-15T17:15:00.110Z,17.20
2019-05-15T17:17:48.695Z,17.20
2019-05-15T17:20:37.272Z,17.20
2019-05-15T17:23:27.284Z,17.10
2019-05-15T17:26:14.901Z,17.10
2019-05-15T17:29:03.994Z,17.20
2019-05-15T17:31:52.377Z,17.20
2019-05-15T17:34:41.078Z,17.20
2019-05-15T17:40:17.778Z,17.00
2019-05-15T17:43:09.181Z,16.90
2019-05-15T17:45:58.221Z,16.90
2019-05-15T17:51:38.356Z,16.60
2019-05-15T17:54:28.610Z,16.50
2019-05-15T17:57:16.187Z,16.30
2019-05-15T18:05:39.557Z,16.10
2019-05-15T18:08:28.625Z,16.10
2019-05-15T18:11:18.670Z,16.00
2019-05-15T18:14:08.740Z,16.10
2019-05-15T18:19:43.557Z,15.90
2019-05-15T18:22:31.511Z,15.70
2019-05-15T18:25:19.493Z,15.70
2019-05-15T18:28:08.554Z,15.60
2019-05-15T18:30:58.807Z,15.50
2019-05-15T18:33:54.382Z,15.40
2019-05-15T18:42:12.290Z,15.10
2019-05-15T18:47:48.322Z,14.90
2019-05-15T18:53:28.343Z,14.60
2019-05-15T18:56:18.716Z,14.40
2019-05-15T18:59:08.371Z,14.30
2019-05-15T19:01:55.704Z,14.20
2019-05-15T19:04:43.924Z,14.10
2019-05-15T19:15:57.980Z,13.80
2019-05-15T19:18:47.945Z,13.80
2019-05-15T19:21:38.256Z,13.60
2019-05-15T19:24:26.724Z,13.50
2019-05-15T19:35:38.724Z,13.10
2019-05-15T19:38:27.994Z,13.00
2019-05-15T19:46:51.278Z,12.50
2019-05-15T19:49:39.718Z,12.40
2019-05-15T19:55:17.697Z,12.10
2019-05-15T20:00:55.713Z,11.80
2019-05-15T20:06:33.724Z,11.50
2019-05-15T20:09:22.137Z,11.40
2019-05-15T20:18:07.933Z,11.00
2019-05-15T20:20:58.518Z,10.90
2019-05-15T20:23:48.739Z,10.80
2019-05-15T20:26:38.059Z,10.80
2019-05-15T20:29:26.173Z,10.70
2019-05-15T20:32:14.357Z,10.50
2019-05-15T20:35:04.880Z,10.50
2019-05-15T20:37:52.688Z,10.30
2019-05-15T20:40:41.726Z,10.20
2019-05-15T20:46:19.294Z,10.00
2019-05-15T20:54:48.070Z,9.70
2019-05-15T21:03:12.972Z,9.50
2019-05-15T21:08:52.315Z,9.20
2019-05-15T21:11:40.164Z,9.30
2019-05-15T21:17:19.616Z,9.20
2019-05-15T21:20:09.035Z,9.20
2019-05-15T21:22:57.921Z,9.10
2019-05-15T21:25:48.274Z,9.10
2019-05-15T21:28:35.917Z,9.10
2019-05-15T21:37:02.911Z,9.00
2019-05-15T21:42:41.575Z,8.90
2019-05-15T21:53:55.037Z,8.60
2019-05-15T21:59:31.137Z,8.50
2019-05-15T22:02:20.680Z,8.50
2019-05-15T22:05:08.901Z,8.40
2019-05-15T22:07:58.694Z,8.30
2019-05-15T22:10:48.183Z,8.20
2019-05-15T22:13:39.083Z,8.10
2019-05-15T22:16:28.874Z,8.00
2019-05-15T22:19:18.166Z,8.00
2019-05-15T22:22:08.746Z,7.90
2019-05-15T22:24:57.744Z,7.80
2019-05-15T22:27:46.022Z,7.70
2019-05-15T22:30:34.565Z,7.60
2019-05-15T22:33:22.600Z,7.50
2019-05-15T22:36:11.296Z,7.50
2019-05-15T22:38:59.508Z,7.50
2019-05-15T22:41:48.435Z,7.40
2019-05-15T22:44:38.464Z,7.40
2019-05-15T22:47:28.534Z,7.30
2019-05-15T22:53:04.142Z,7.30
2019-05-15T22:55:52.454Z,7.20
2019-05-15T22:58:40.549Z,7.30
2019-05-15T23:01:29.691Z,7.40
2019-05-15T23:04:18.489Z,7.30
2019-05-15T23:07:08.192Z,7.30
2019-05-15T23:09:58.304Z,7.20
2019-05-15T23:12:48.647Z,7.20
2019-05-15T23:15:38.547Z,7.20
2019-05-15T23:18:27.310Z,7.10
2019-05-15T23:21:15.178Z,7.10
2019-05-15T23:26:51.241Z,7.10
2019-05-15T23:29:39.713Z,7.10
2019-05-15T23:32:28.898Z,7.10
2019-05-15T23:35:17.984Z,7.00
2019-05-15T23:38:08.473Z,6.90
2019-05-15T23:40:58.758Z,7.00
2019-05-15T23:43:48.259Z,6.90
2019-05-15T23:46:38.212Z,6.90
2019-05-15T23:49:27.903Z,6.90
2019-05-15T23:52:16.229Z,6.80
2019-05-15T23:55:04.204Z,6.70
2019-05-15T23:57:52.500Z,3.50
